sensor_id;sensor_type;location;lat;lon;timestamp;P1;durP1;ratioP1;P2;durP2;ratioP2
59587;SDS011;45412;54.472;18.464;2023-03-01T00:00:52;11.00;;;3.70;;
59587;SDS011;45412;54.472;18.464;2023-03-01T00:03:41;10.90;;;3.70;;
59587;SDS011;45412;54.472;18.464;2023-03-01T00:06:30;11.80;;;3.90;;
59587;SDS011;45412;54.472;18.464;2023-03-01T00:09:19;13.90;;;3.80;;
59587;SDS011;45412;54.472;18.464;2023-03-01T00:12:07;15.30;;;4.00;;
59587;SDS011;45412;54.472;18.464;2023-03-01T00:14:55;13.50;;;3.90;;
59587;SDS011;45412;54.472;18.464;2023-03-01T00:17:43;11.30;;;4.30;;
59587;SDS011;45412;54.472;18.464;2023-03-01T00:20:32;11.90;;;3.50;;
59587;SDS011;45412;54.472;18.464;2023-03-01T00:23:21;13.40;;;4.40;;
59587;SDS011;45412;54.472;18.464;2023-03-01T00:26:12;10.60;;;4.10;;
59587;SDS011;45412;54.472;18.464;2023-03-01T00:29:02;12.20;;;4.00;;
59587;SDS011;45412;54.472;18.464;2023-03-01T00:31:50;12.30;;;3.80;;
59587;SDS011;45412;54.472;18.464;2023-03-01T00:34:38;11.60;;;3.70;;
59587;SDS011;45412;54.472;18.464;2023-03-01T00:37:26;9.10;;;3.10;;
59587;SDS011;45412;54.472;18.464;2023-03-01T00:40:15;12.20;;;4.60;;
59587;SDS011;45412;54.472;18.464;2023-03-01T00:43:03;12.20;;;3.90;;
59587;SDS011;45412;54.472;18.464;2023-03-01T00:45:51;10.80;;;4.00;;
59587;SDS011;45412;54.472;18.464;2023-03-01T00:48:40;10.80;;;4.00;;
59587;SDS011;45412;54.472;18.464;2023-03-01T00:51:29;13.10;;;4.50;;
59587;SDS011;45412;54.472;18.464;2023-03-01T00:54:18;12.80;;;4.10;;
59587;SDS011;45412;54.472;18.464;2023-03-01T00:57:07;11.20;;;3.90;;
59587;SDS011;45412;54.472;18.464;2023-03-01T00:59:55;12.30;;;3.90;;
59587;SDS011;45412;54.472;18.464;2023-03-01T01:02:44;13.50;;;4.50;;
59587;SDS011;45412;54.472;18.464;2023-03-01T01:05:34;15.40;;;5.10;;
59587;SDS011;45412;54.472;18.464;2023-03-01T01:08:23;12.40;;;4.70;;
59587;SDS011;45412;54.472;18.464;2023-03-01T01:11:12;13.30;;;4.60;;
59587;SDS011;45412;54.472;18.464;2023-03-01T01:14:01;14.40;;;4.30;;
59587;SDS011;45412;54.472;18.464;2023-03-01T01:16:49;12.20;;;3.40;;
59587;SDS011;45412;54.472;18.464;2023-03-01T01:19:37;13.80;;;4.30;;
59587;SDS011;45412;54.472;18.464;2023-03-01T01:22:25;12.30;;;4.10;;
59587;SDS011;45412;54.472;18.464;2023-03-01T01:25:13;11.50;;;4.90;;
59587;SDS011;45412;54.472;18.464;2023-03-01T01:28:01;16.30;;;5.80;;
59587;SDS011;45412;54.472;18.464;2023-03-01T01:30:49;15.60;;;5.30;;
59587;SDS011;45412;54.472;18.464;2023-03-01T01:33:37;15.20;;;5.20;;
59587;SDS011;45412;54.472;18.464;2023-03-01T01:36:26;12.20;;;5.10;;
59587;SDS011;45412;54.472;18.464;2023-03-01T01:39:15;15.00;;;5.40;;
59587;SDS011;45412;54.472;18.464;2023-03-01T01:42:05;14.90;;;5.40;;
59587;SDS011;45412;54.472;18.464;2023-03-01T01:45:46;13.50;;;4.20;;
59587;SDS011;45412;54.472;18.464;2023-03-01T01:48:43;16.70;;;5.20;;
59587;SDS011;45412;54.472;18.464;2023-03-01T01:51:40;15.70;;;5.10;;
59587;SDS011;45412;54.472;18.464;2023-03-01T01:57:36;14.20;;;5.70;;
59587;SDS011;45412;54.472;18.464;2023-03-01T02:00:28;11.90;;;3.90;;
59587;SDS011;45412;54.472;18.464;2023-03-01T02:03:20;12.70;;;4.60;;
59587;SDS011;45412;54.472;18.464;2023-03-01T02:06:26;12.70;;;4.40;;
59587;SDS011;45412;54.472;18.464;2023-03-01T02:09:18;15.10;;;5.60;;
59587;SDS011;45412;54.472;18.464;2023-03-01T02:12:09;12.40;;;5.60;;
59587;SDS011;45412;54.472;18.464;2023-03-01T02:14:57;19.50;;;6.50;;
59587;SDS011;45412;54.472;18.464;2023-03-01T02:17:45;14.70;;;5.20;;
59587;SDS011;45412;54.472;18.464;2023-03-01T02:20:50;14.70;;;5.50;;
59587;SDS011;45412;54.472;18.464;2023-03-01T02:24:30;15.80;;;5.90;;
59587;SDS011;45412;54.472;18.464;2023-03-01T02:27:13;16.10;;;5.80;;
59587;SDS011;45412;54.472;18.464;2023-03-01T02:30:04;19.70;;;6.50;;
59587;SDS011;45412;54.472;18.464;2023-03-01T02:32:54;13.80;;;5.70;;
59587;SDS011;45412;54.472;18.464;2023-03-01T02:35:50;16.80;;;6.20;;
59587;SDS011;45412;54.472;18.464;2023-03-01T02:38:41;14.20;;;5.70;;
59587;SDS011;45412;54.472;18.464;2023-03-01T02:41:34;16.70;;;5.90;;
59587;SDS011;45412;54.472;18.464;2023-03-01T02:44:24;21.20;;;7.80;;
59587;SDS011;45412;54.472;18.464;2023-03-01T02:47:12;18.10;;;6.80;;
59587;SDS011;45412;54.472;18.464;2023-03-01T02:50:00;22.60;;;7.80;;
59587;SDS011;45412;54.472;18.464;2023-03-01T02:53:55;19.50;;;6.80;;
59587;SDS011;45412;54.472;18.464;2023-03-01T02:56:46;16.20;;;6.50;;
59587;SDS011;45412;54.472;18.464;2023-03-01T02:59:37;17.40;;;6.80;;
59587;SDS011;45412;54.472;18.464;2023-03-01T03:02:29;19.90;;;7.40;;
59587;SDS011;45412;54.472;18.464;2023-03-01T03:05:32;20.50;;;8.40;;
59587;SDS011;45412;54.472;18.464;2023-03-01T03:08:20;22.60;;;7.70;;
59587;SDS011;45412;54.472;18.464;2023-03-01T03:11:12;20.40;;;8.60;;
59587;SDS011;45412;54.472;18.464;2023-03-01T03:14:00;21.30;;;9.20;;
59587;SDS011;45412;54.472;18.464;2023-03-01T03:16:49;20.10;;;7.40;;
59587;SDS011;45412;54.472;18.464;2023-03-01T03:19:37;28.40;;;9.40;;
59587;SDS011;45412;54.472;18.464;2023-03-01T03:22:25;18.70;;;7.10;;
59587;SDS011;45412;54.472;18.464;2023-03-01T03:25:17;20.70;;;7.10;;
59587;SDS011;45412;54.472;18.464;2023-03-01T03:28:07;15.90;;;6.40;;
59587;SDS011;45412;54.472;18.464;2023-03-01T03:30:57;20.60;;;7.60;;
59587;SDS011;45412;54.472;18.464;2023-03-01T03:33:45;17.90;;;7.00;;
59587;SDS011;45412;54.472;18.464;2023-03-01T03:36:33;22.90;;;8.50;;
59587;SDS011;45412;54.472;18.464;2023-03-01T03:39:21;21.90;;;8.70;;
59587;SDS011;45412;54.472;18.464;2023-03-01T03:42:09;26.60;;;7.90;;
59587;SDS011;45412;54.472;18.464;2023-03-01T03:44:57;19.70;;;7.50;;
59587;SDS011;45412;54.472;18.464;2023-03-01T03:47:45;18.80;;;7.50;;
59587;SDS011;45412;54.472;18.464;2023-03-01T03:50:33;19.30;;;7.70;;
59587;SDS011;45412;54.472;18.464;2023-03-01T03:53:22;20.30;;;7.70;;
59587;SDS011;45412;54.472;18.464;2023-03-01T03:56:12;17.00;;;7.10;;
59587;SDS011;45412;54.472;18.464;2023-03-01T03:59:00;20.10;;;6.80;;
59587;SDS011;45412;54.472;18.464;2023-03-01T04:01:48;17.50;;;7.70;;
59587;SDS011;45412;54.472;18.464;2023-03-01T04:04:36;20.70;;;7.30;;
59587;SDS011;45412;54.472;18.464;2023-03-01T04:07:24;19.80;;;7.50;;
59587;SDS011;45412;54.472;18.464;2023-03-01T04:10:17;18.40;;;6.80;;
59587;SDS011;45412;54.472;18.464;2023-03-01T04:13:06;15.30;;;5.90;;
59587;SDS011;45412;54.472;18.464;2023-03-01T04:15:56;23.20;;;8.90;;
59587;SDS011;45412;54.472;18.464;2023-03-01T04:18:45;20.10;;;7.90;;
59587;SDS011;45412;54.472;18.464;2023-03-01T04:21:33;16.80;;;6.60;;
59587;SDS011;45412;54.472;18.464;2023-03-01T04:24:21;19.60;;;8.20;;
59587;SDS011;45412;54.472;18.464;2023-03-01T04:27:11;21.50;;;9.10;;
59587;SDS011;45412;54.472;18.464;2023-03-01T04:30:00;27.20;;;9.60;;
59587;SDS011;45412;54.472;18.464;2023-03-01T04:32:48;23.20;;;9.10;;
59587;SDS011;45412;54.472;18.464;2023-03-01T04:35:37;26.10;;;10.70;;
59587;SDS011;45412;54.472;18.464;2023-03-01T04:38:26;20.70;;;8.10;;
59587;SDS011;45412;54.472;18.464;2023-03-01T04:41:17;25.70;;;9.30;;
59587;SDS011;45412;54.472;18.464;2023-03-01T04:44:07;21.20;;;7.90;;
59587;SDS011;45412;54.472;18.464;2023-03-01T04:46:56;25.00;;;8.10;;
59587;SDS011;45412;54.472;18.464;2023-03-01T04:49:44;18.00;;;7.10;;
59587;SDS011;45412;54.472;18.464;2023-03-01T04:52:32;18.70;;;6.70;;
59587;SDS011;45412;54.472;18.464;2023-03-01T04:55:19;21.70;;;8.60;;
59587;SDS011;45412;54.472;18.464;2023-03-01T04:58:07;19.10;;;6.20;;
59587;SDS011;45412;54.472;18.464;2023-03-01T05:00:56;19.00;;;8.40;;
59587;SDS011;45412;54.472;18.464;2023-03-01T05:03:45;24.60;;;8.80;;
59587;SDS011;45412;54.472;18.464;2023-03-01T05:06:38;18.40;;;7.30;;
59587;SDS011;45412;54.472;18.464;2023-03-01T05:09:27;22.30;;;7.40;;
59587;SDS011;45412;54.472;18.464;2023-03-01T05:12:15;26.70;;;9.40;;
59587;SDS011;45412;54.472;18.464;2023-03-01T05:15:03;27.00;;;8.50;;
59587;SDS011;45412;54.472;18.464;2023-03-01T05:17:55;23.40;;;8.90;;
59587;SDS011;45412;54.472;18.464;2023-03-01T05:21:00;23.00;;;9.60;;
59587;SDS011;45412;54.472;18.464;2023-03-01T05:23:53;23.80;;;9.30;;
59587;SDS011;45412;54.472;18.464;2023-03-01T05:26:41;21.90;;;7.70;;
59587;SDS011;45412;54.472;18.464;2023-03-01T05:29:30;21.20;;;9.00;;
59587;SDS011;45412;54.472;18.464;2023-03-01T05:32:18;20.30;;;7.30;;
59587;SDS011;45412;54.472;18.464;2023-03-01T05:35:07;23.80;;;8.90;;
59587;SDS011;45412;54.472;18.464;2023-03-01T05:37:55;19.40;;;7.00;;
59587;SDS011;45412;54.472;18.464;2023-03-01T05:40:44;19.50;;;8.10;;
59587;SDS011;45412;54.472;18.464;2023-03-01T05:43:34;19.40;;;7.90;;
59587;SDS011;45412;54.472;18.464;2023-03-01T05:46:21;23.10;;;8.10;;
59587;SDS011;45412;54.472;18.464;2023-03-01T05:49:12;17.70;;;7.50;;
59587;SDS011;45412;54.472;18.464;2023-03-01T05:52:03;22.30;;;9.50;;
59587;SDS011;45412;54.472;18.464;2023-03-01T05:54:51;22.00;;;8.80;;
59587;SDS011;45412;54.472;18.464;2023-03-01T05:57:39;17.10;;;6.80;;
59587;SDS011;45412;54.472;18.464;2023-03-01T06:00:29;17.90;;;8.10;;
59587;SDS011;45412;54.472;18.464;2023-03-01T06:03:17;22.90;;;8.20;;
59587;SDS011;45412;54.472;18.464;2023-03-01T06:06:06;21.40;;;7.70;;
59587;SDS011;45412;54.472;18.464;2023-03-01T06:08:54;20.40;;;7.70;;
59587;SDS011;45412;54.472;18.464;2023-03-01T06:11:43;19.40;;;8.20;;
59587;SDS011;45412;54.472;18.464;2023-03-01T06:14:31;20.80;;;8.00;;
59587;SDS011;45412;54.472;18.464;2023-03-01T06:17:19;17.10;;;6.70;;
59587;SDS011;45412;54.472;18.464;2023-03-01T06:20:16;17.30;;;6.60;;
59587;SDS011;45412;54.472;18.464;2023-03-01T06:23:09;19.70;;;7.60;;
59587;SDS011;45412;54.472;18.464;2023-03-01T06:25:57;20.30;;;8.70;;
59587;SDS011;45412;54.472;18.464;2023-03-01T06:28:44;19.90;;;7.90;;
59587;SDS011;45412;54.472;18.464;2023-03-01T06:31:33;21.70;;;8.40;;
59587;SDS011;45412;54.472;18.464;2023-03-01T06:34:22;15.50;;;6.60;;
59587;SDS011;45412;54.472;18.464;2023-03-01T06:37:10;19.50;;;6.70;;
59587;SDS011;45412;54.472;18.464;2023-03-01T06:39:58;19.20;;;7.00;;
59587;SDS011;45412;54.472;18.464;2023-03-01T06:42:48;18.00;;;6.70;;
59587;SDS011;45412;54.472;18.464;2023-03-01T06:45:37;19.70;;;7.70;;
59587;SDS011;45412;54.472;18.464;2023-03-01T06:48:25;20.30;;;7.80;;
59587;SDS011;45412;54.472;18.464;2023-03-01T06:51:13;17.90;;;7.10;;
59587;SDS011;45412;54.472;18.464;2023-03-01T06:54:02;16.80;;;6.50;;
59587;SDS011;45412;54.472;18.464;2023-03-01T06:56:52;18.20;;;6.70;;
59587;SDS011;45412;54.472;18.464;2023-03-01T06:59:43;17.50;;;5.70;;
59587;SDS011;45412;54.472;18.464;2023-03-01T07:02:31;21.90;;;7.80;;
59587;SDS011;45412;54.472;18.464;2023-03-01T07:05:19;17.60;;;7.20;;
59587;SDS011;45412;54.472;18.464;2023-03-01T07:08:08;18.80;;;7.00;;
59587;SDS011;45412;54.472;18.464;2023-03-01T07:10:59;16.50;;;6.60;;
59587;SDS011;45412;54.472;18.464;2023-03-01T07:13:49;17.10;;;7.30;;
59587;SDS011;45412;54.472;18.464;2023-03-01T07:16:37;20.10;;;8.40;;
59587;SDS011;45412;54.472;18.464;2023-03-01T07:19:25;17.70;;;8.00;;
59587;SDS011;45412;54.472;18.464;2023-03-01T07:22:14;18.50;;;7.60;;
59587;SDS011;45412;54.472;18.464;2023-03-01T07:25:02;18.30;;;7.20;;
59587;SDS011;45412;54.472;18.464;2023-03-01T07:27:51;18.20;;;7.90;;
59587;SDS011;45412;54.472;18.464;2023-03-01T07:30:40;16.10;;;6.90;;
59587;SDS011;45412;54.472;18.464;2023-03-01T07:33:28;15.00;;;7.20;;
59587;SDS011;45412;54.472;18.464;2023-03-01T07:36:16;16.60;;;7.20;;
59587;SDS011;45412;54.472;18.464;2023-03-01T07:39:04;15.90;;;6.80;;
59587;SDS011;45412;54.472;18.464;2023-03-01T07:41:52;17.20;;;7.40;;
59587;SDS011;45412;54.472;18.464;2023-03-01T07:44:41;16.20;;;7.10;;
59587;SDS011;45412;54.472;18.464;2023-03-01T07:47:29;14.70;;;6.50;;
59587;SDS011;45412;54.472;18.464;2023-03-01T07:50:18;13.70;;;6.20;;
59587;SDS011;45412;54.472;18.464;2023-03-01T07:53:06;13.70;;;7.20;;
59587;SDS011;45412;54.472;18.464;2023-03-01T07:56:11;13.30;;;5.90;;
59587;SDS011;45412;54.472;18.464;2023-03-01T07:59:00;15.40;;;7.10;;
59587;SDS011;45412;54.472;18.464;2023-03-01T08:01:48;12.40;;;6.20;;
59587;SDS011;45412;54.472;18.464;2023-03-01T08:04:36;26.80;;;15.30;;
59587;SDS011;45412;54.472;18.464;2023-03-01T08:07:25;18.10;;;9.70;;
59587;SDS011;45412;54.472;18.464;2023-03-01T08:10:13;14.10;;;7.30;;
59587;SDS011;45412;54.472;18.464;2023-03-01T08:13:01;13.50;;;7.50;;
59587;SDS011;45412;54.472;18.464;2023-03-01T08:15:49;13.90;;;7.80;;
59587;SDS011;45412;54.472;18.464;2023-03-01T08:18:37;17.90;;;8.60;;
59587;SDS011;45412;54.472;18.464;2023-03-01T08:21:25;12.90;;;7.30;;
59587;SDS011;45412;54.472;18.464;2023-03-01T08:24:13;14.10;;;7.90;;
59587;SDS011;45412;54.472;18.464;2023-03-01T08:27:01;13.60;;;7.70;;
59587;SDS011;45412;54.472;18.464;2023-03-01T08:29:50;12.40;;;6.80;;
59587;SDS011;45412;54.472;18.464;2023-03-01T08:32:39;13.10;;;7.70;;
59587;SDS011;45412;54.472;18.464;2023-03-01T08:35:27;13.40;;;7.70;;
59587;SDS011;45412;54.472;18.464;2023-03-01T08:38:15;14.00;;;8.10;;
59587;SDS011;45412;54.472;18.464;2023-03-01T08:41:03;13.80;;;8.00;;
59587;SDS011;45412;54.472;18.464;2023-03-01T08:43:52;14.50;;;8.10;;
59587;SDS011;45412;54.472;18.464;2023-03-01T08:46:46;13.30;;;7.80;;
59587;SDS011;45412;54.472;18.464;2023-03-01T08:49:35;15.80;;;9.10;;
59587;SDS011;45412;54.472;18.464;2023-03-01T08:52:23;14.60;;;8.50;;
59587;SDS011;45412;54.472;18.464;2023-03-01T08:55:11;13.90;;;8.50;;
59587;SDS011;45412;54.472;18.464;2023-03-01T08:57:59;13.20;;;7.70;;
59587;SDS011;45412;54.472;18.464;2023-03-01T09:00:47;14.30;;;8.40;;
59587;SDS011;45412;54.472;18.464;2023-03-01T09:03:35;13.40;;;8.50;;
59587;SDS011;45412;54.472;18.464;2023-03-01T09:06:24;15.00;;;8.90;;
59587;SDS011;45412;54.472;18.464;2023-03-01T09:09:14;15.00;;;9.20;;
59587;SDS011;45412;54.472;18.464;2023-03-01T09:12:03;20.20;;;13.20;;
59587;SDS011;45412;54.472;18.464;2023-03-01T09:14:52;15.20;;;9.40;;
59587;SDS011;45412;54.472;18.464;2023-03-01T09:17:40;14.60;;;8.10;;
59587;SDS011;45412;54.472;18.464;2023-03-01T09:20:28;14.50;;;8.80;;
59587;SDS011;45412;54.472;18.464;2023-03-01T09:23:18;14.60;;;8.70;;
59587;SDS011;45412;54.472;18.464;2023-03-01T09:26:08;14.70;;;8.10;;
59587;SDS011;45412;54.472;18.464;2023-03-01T09:28:57;14.50;;;8.40;;
59587;SDS011;45412;54.472;18.464;2023-03-01T09:31:45;14.30;;;8.60;;
59587;SDS011;45412;54.472;18.464;2023-03-01T09:34:33;14.10;;;8.60;;
59587;SDS011;45412;54.472;18.464;2023-03-01T09:37:41;14.20;;;9.00;;
59587;SDS011;45412;54.472;18.464;2023-03-01T09:40:32;14.50;;;8.60;;
59587;SDS011;45412;54.472;18.464;2023-03-01T09:46:27;14.60;;;8.90;;
59587;SDS011;45412;54.472;18.464;2023-03-01T09:49:21;12.50;;;8.20;;
59587;SDS011;45412;54.472;18.464;2023-03-01T09:55:17;12.30;;;7.80;;
59587;SDS011;45412;54.472;18.464;2023-03-01T10:07:50;12.10;;;7.50;;
59587;SDS011;45412;54.472;18.464;2023-03-01T10:10:44;14.10;;;8.40;;
59587;SDS011;45412;54.472;18.464;2023-03-01T10:19:59;13.40;;;7.90;;
59587;SDS011;45412;54.472;18.464;2023-03-01T10:23:04;13.00;;;7.90;;
59587;SDS011;45412;54.472;18.464;2023-03-01T10:29:12;11.40;;;6.60;;
59587;SDS011;45412;54.472;18.464;2023-03-01T10:32:02;11.40;;;7.10;;
59587;SDS011;45412;54.472;18.464;2023-03-01T10:34:54;11.30;;;6.60;;
59587;SDS011;45412;54.472;18.464;2023-03-01T10:38:03;13.30;;;7.30;;
59587;SDS011;45412;54.472;18.464;2023-03-01T10:40:54;13.00;;;7.10;;
59587;SDS011;45412;54.472;18.464;2023-03-01T10:43:48;11.40;;;6.90;;
59587;SDS011;45412;54.472;18.464;2023-03-01T10:46:38;10.90;;;6.60;;
59587;SDS011;45412;54.472;18.464;2023-03-01T10:49:27;9.80;;;5.80;;
59587;SDS011;45412;54.472;18.464;2023-03-01T10:52:30;12.30;;;7.40;;
59587;SDS011;45412;54.472;18.464;2023-03-01T10:55:35;11.90;;;7.20;;
59587;SDS011;45412;54.472;18.464;2023-03-01T10:58:24;13.10;;;7.40;;
59587;SDS011;45412;54.472;18.464;2023-03-01T11:07:01;14.40;;;8.40;;
59587;SDS011;45412;54.472;18.464;2023-03-01T11:09:50;15.50;;;9.50;;
59587;SDS011;45412;54.472;18.464;2023-03-01T11:12:38;13.70;;;8.50;;
59587;SDS011;45412;54.472;18.464;2023-03-01T11:15:27;12.90;;;8.00;;
59587;SDS011;45412;54.472;18.464;2023-03-01T11:18:21;13.90;;;8.20;;
59587;SDS011;45412;54.472;18.464;2023-03-01T11:21:24;12.30;;;7.60;;
59587;SDS011;45412;54.472;18.464;2023-03-01T11:24:16;13.00;;;7.70;;
59587;SDS011;45412;54.472;18.464;2023-03-01T11:27:17;13.10;;;7.80;;
59587;SDS011;45412;54.472;18.464;2023-03-01T11:36:41;13.70;;;8.20;;
59587;SDS011;45412;54.472;18.464;2023-03-01T11:39:39;14.50;;;7.90;;
59587;SDS011;45412;54.472;18.464;2023-03-01T11:45:52;12.40;;;7.10;;
59587;SDS011;45412;54.472;18.464;2023-03-01T12:08:48;14.40;;;8.30;;
59587;SDS011;45412;54.472;18.464;2023-03-01T12:15:17;14.10;;;8.10;;
59587;SDS011;45412;54.472;18.464;2023-03-01T12:21:46;16.60;;;8.40;;
59587;SDS011;45412;54.472;18.464;2023-03-01T12:31:25;15.50;;;8.80;;
59587;SDS011;45412;54.472;18.464;2023-03-01T12:34:46;16.00;;;9.20;;
59587;SDS011;45412;54.472;18.464;2023-03-01T12:37:50;16.90;;;9.70;;
59587;SDS011;45412;54.472;18.464;2023-03-01T12:51:08;16.30;;;8.90;;
59587;SDS011;45412;54.472;18.464;2023-03-01T12:54:39;18.30;;;9.20;;
59587;SDS011;45412;54.472;18.464;2023-03-01T12:57:41;17.30;;;9.10;;
59587;SDS011;45412;54.472;18.464;2023-03-01T13:00:41;16.70;;;9.30;;
59587;SDS011;45412;54.472;18.464;2023-03-01T13:07:28;18.20;;;8.80;;
59587;SDS011;45412;54.472;18.464;2023-03-01T13:13:42;17.30;;;8.40;;
59587;SDS011;45412;54.472;18.464;2023-03-01T13:19:25;15.90;;;7.90;;
59587;SDS011;45412;54.472;18.464;2023-03-01T13:22:30;17.90;;;8.90;;
59587;SDS011;45412;54.472;18.464;2023-03-01T13:25:23;19.00;;;8.50;;
59587;SDS011;45412;54.472;18.464;2023-03-01T13:28:47;16.10;;;8.60;;
59587;SDS011;45412;54.472;18.464;2023-03-01T13:34:41;17.50;;;8.60;;
59587;SDS011;45412;54.472;18.464;2023-03-01T13:37:37;14.60;;;7.60;;
59587;SDS011;45412;54.472;18.464;2023-03-01T13:43:27;14.70;;;6.70;;
59587;SDS011;45412;54.472;18.464;2023-03-01T13:46:20;14.50;;;6.60;;
59587;SDS011;45412;54.472;18.464;2023-03-01T13:49:13;11.10;;;5.50;;
59587;SDS011;45412;54.472;18.464;2023-03-01T13:52:13;14.30;;;5.80;;
59587;SDS011;45412;54.472;18.464;2023-03-01T13:58:25;13.70;;;6.00;;
59587;SDS011;45412;54.472;18.464;2023-03-01T14:01:28;12.50;;;6.20;;
59587;SDS011;45412;54.472;18.464;2023-03-01T14:04:22;13.20;;;4.90;;
59587;SDS011;45412;54.472;18.464;2023-03-01T14:07:19;11.00;;;5.50;;
59587;SDS011;45412;54.472;18.464;2023-03-01T14:10:11;10.30;;;5.00;;
59587;SDS011;45412;54.472;18.464;2023-03-01T14:13:09;10.60;;;5.00;;
59587;SDS011;45412;54.472;18.464;2023-03-01T14:16:10;11.80;;;4.80;;
59587;SDS011;45412;54.472;18.464;2023-03-01T14:22:31;11.40;;;5.60;;
59587;SDS011;45412;54.472;18.464;2023-03-01T14:25:32;12.70;;;5.40;;
59587;SDS011;45412;54.472;18.464;2023-03-01T14:28:28;14.00;;;6.00;;
59587;SDS011;45412;54.472;18.464;2023-03-01T14:31:38;14.20;;;6.20;;
59587;SDS011;45412;54.472;18.464;2023-03-01T14:34:47;11.70;;;6.10;;
59587;SDS011;45412;54.472;18.464;2023-03-01T14:37:37;14.60;;;6.10;;
59587;SDS011;45412;54.472;18.464;2023-03-01T14:40:36;19.40;;;9.10;;
59587;SDS011;45412;54.472;18.464;2023-03-01T14:43:24;17.90;;;8.00;;
59587;SDS011;45412;54.472;18.464;2023-03-01T14:46:40;17.60;;;8.00;;
59587;SDS011;45412;54.472;18.464;2023-03-01T14:49:31;16.80;;;7.20;;
59587;SDS011;45412;54.472;18.464;2023-03-01T14:52:35;18.20;;;8.20;;
59587;SDS011;45412;54.472;18.464;2023-03-01T14:55:30;17.40;;;8.20;;
59587;SDS011;45412;54.472;18.464;2023-03-01T14:58:24;16.90;;;7.60;;
59587;SDS011;45412;54.472;18.464;2023-03-01T15:01:16;19.00;;;8.80;;
59587;SDS011;45412;54.472;18.464;2023-03-01T15:04:05;20.70;;;9.30;;
59587;SDS011;45412;54.472;18.464;2023-03-01T15:06:55;17.90;;;8.40;;
59587;SDS011;45412;54.472;18.464;2023-03-01T15:09:52;18.60;;;9.00;;
59587;SDS011;45412;54.472;18.464;2023-03-01T15:12:41;21.00;;;8.90;;
59587;SDS011;45412;54.472;18.464;2023-03-01T15:15:36;19.50;;;9.60;;
59587;SDS011;45412;54.472;18.464;2023-03-01T15:18:29;22.70;;;9.60;;
59587;SDS011;45412;54.472;18.464;2023-03-01T15:27:20;19.40;;;8.50;;
59587;SDS011;45412;54.472;18.464;2023-03-01T15:30:21;19.60;;;8.70;;
59587;SDS011;45412;54.472;18.464;2023-03-01T15:39:41;21.10;;;9.70;;
59587;SDS011;45412;54.472;18.464;2023-03-01T15:45:23;17.70;;;8.40;;
59587;SDS011;45412;54.472;18.464;2023-03-01T15:48:17;21.00;;;9.50;;
59587;SDS011;45412;54.472;18.464;2023-03-01T15:51:09;22.80;;;10.00;;
59587;SDS011;45412;54.472;18.464;2023-03-01T15:54:06;21.00;;;10.90;;
59587;SDS011;45412;54.472;18.464;2023-03-01T15:57:03;24.10;;;10.50;;
59587;SDS011;45412;54.472;18.464;2023-03-01T15:59:53;25.50;;;10.90;;
59587;SDS011;45412;54.472;18.464;2023-03-01T16:02:42;22.90;;;10.90;;
59587;SDS011;45412;54.472;18.464;2023-03-01T16:05:33;22.00;;;10.60;;
59587;SDS011;45412;54.472;18.464;2023-03-01T16:08:23;26.00;;;11.60;;
59587;SDS011;45412;54.472;18.464;2023-03-01T16:11:17;27.10;;;12.40;;
59587;SDS011;45412;54.472;18.464;2023-03-01T16:14:08;25.70;;;11.30;;
59587;SDS011;45412;54.472;18.464;2023-03-01T16:16:57;31.50;;;13.70;;
59587;SDS011;45412;54.472;18.464;2023-03-01T16:19:45;30.10;;;13.90;;
59587;SDS011;45412;54.472;18.464;2023-03-01T16:22:33;31.20;;;15.00;;
59587;SDS011;45412;54.472;18.464;2023-03-01T16:25:21;30.70;;;14.60;;
59587;SDS011;45412;54.472;18.464;2023-03-01T16:28:09;30.20;;;15.20;;
59587;SDS011;45412;54.472;18.464;2023-03-01T16:30:57;32.20;;;14.30;;
59587;SDS011;45412;54.472;18.464;2023-03-01T16:33:46;18.70;;;8.10;;
59587;SDS011;45412;54.472;18.464;2023-03-01T16:36:36;17.40;;;7.70;;
59587;SDS011;45412;54.472;18.464;2023-03-01T16:39:25;25.90;;;9.00;;
59587;SDS011;45412;54.472;18.464;2023-03-01T16:42:13;23.30;;;8.00;;
59587;SDS011;45412;54.472;18.464;2023-03-01T16:45:02;17.50;;;6.40;;
59587;SDS011;45412;54.472;18.464;2023-03-01T16:48:01;13.40;;;5.20;;
59587;SDS011;45412;54.472;18.464;2023-03-01T16:50:59;15.10;;;5.10;;
59587;SDS011;45412;54.472;18.464;2023-03-01T16:53:49;13.80;;;4.60;;
59587;SDS011;45412;54.472;18.464;2023-03-01T16:56:40;12.60;;;5.40;;
59587;SDS011;45412;54.472;18.464;2023-03-01T16:59:28;12.20;;;5.10;;
59587;SDS011;45412;54.472;18.464;2023-03-01T17:02:16;14.30;;;6.00;;
59587;SDS011;45412;54.472;18.464;2023-03-01T17:05:07;13.10;;;5.50;;
59587;SDS011;45412;54.472;18.464;2023-03-01T17:07:57;13.90;;;6.10;;
59587;SDS011;45412;54.472;18.464;2023-03-01T17:10:47;13.70;;;5.70;;
59587;SDS011;45412;54.472;18.464;2023-03-01T17:13:36;13.40;;;5.50;;
59587;SDS011;45412;54.472;18.464;2023-03-01T17:16:25;11.60;;;4.70;;
59587;SDS011;45412;54.472;18.464;2023-03-01T17:19:14;10.60;;;4.80;;
59587;SDS011;45412;54.472;18.464;2023-03-01T17:22:05;8.20;;;3.40;;
59587;SDS011;45412;54.472;18.464;2023-03-01T17:24:53;11.20;;;4.30;;
59587;SDS011;45412;54.472;18.464;2023-03-01T17:27:43;10.70;;;4.10;;
59587;SDS011;45412;54.472;18.464;2023-03-01T17:30:31;9.90;;;3.90;;
59587;SDS011;45412;54.472;18.464;2023-03-01T17:33:19;9.20;;;3.60;;
59587;SDS011;45412;54.472;18.464;2023-03-01T17:36:08;11.60;;;2.80;;
59587;SDS011;45412;54.472;18.464;2023-03-01T17:38:56;8.80;;;2.60;;
59587;SDS011;45412;54.472;18.464;2023-03-01T17:41:45;7.70;;;2.70;;
59587;SDS011;45412;54.472;18.464;2023-03-01T17:44:33;9.30;;;3.10;;
59587;SDS011;45412;54.472;18.464;2023-03-01T17:47:22;10.10;;;3.90;;
59587;SDS011;45412;54.472;18.464;2023-03-01T17:50:10;17.00;;;5.70;;
59587;SDS011;45412;54.472;18.464;2023-03-01T17:52:59;14.70;;;5.20;;
59587;SDS011;45412;54.472;18.464;2023-03-01T17:55:47;13.40;;;4.30;;
59587;SDS011;45412;54.472;18.464;2023-03-01T17:58:40;18.60;;;5.40;;
59587;SDS011;45412;54.472;18.464;2023-03-01T18:01:28;10.40;;;3.80;;
59587;SDS011;45412;54.472;18.464;2023-03-01T18:04:18;8.60;;;3.40;;
59587;SDS011;45412;54.472;18.464;2023-03-01T18:07:06;9.40;;;3.30;;
59587;SDS011;45412;54.472;18.464;2023-03-01T18:09:54;9.30;;;3.70;;
59587;SDS011;45412;54.472;18.464;2023-03-01T18:12:42;10.20;;;3.50;;
59587;SDS011;45412;54.472;18.464;2023-03-01T18:15:32;10.20;;;3.10;;
59587;SDS011;45412;54.472;18.464;2023-03-01T18:18:20;11.70;;;3.80;;
59587;SDS011;45412;54.472;18.464;2023-03-01T18:21:08;12.10;;;3.90;;
59587;SDS011;45412;54.472;18.464;2023-03-01T18:23:56;11.10;;;4.50;;
59587;SDS011;45412;54.472;18.464;2023-03-01T18:26:46;12.00;;;4.40;;
59587;SDS011;45412;54.472;18.464;2023-03-01T18:29:35;12.00;;;5.00;;
59587;SDS011;45412;54.472;18.464;2023-03-01T18:32:24;16.00;;;5.40;;
59587;SDS011;45412;54.472;18.464;2023-03-01T18:35:13;12.80;;;4.30;;
59587;SDS011;45412;54.472;18.464;2023-03-01T18:38:01;13.60;;;4.50;;
59587;SDS011;45412;54.472;18.464;2023-03-01T18:40:50;11.60;;;4.50;;
59587;SDS011;45412;54.472;18.464;2023-03-01T18:43:39;12.40;;;4.80;;
59587;SDS011;45412;54.472;18.464;2023-03-01T18:46:28;15.20;;;5.40;;
59587;SDS011;45412;54.472;18.464;2023-03-01T18:49:16;16.20;;;5.60;;